createdAt,value
2023-01-01T00:00:50.255Z,100157.59
2023-01-01T00:03:18.828Z,100146.63
2023-01-01T00:05:48.793Z,100174.22
2023-01-01T00:08:17.230Z,100171.25
2023-01-01T00:10:45.767Z,100182.88
2023-01-01T00:13:15.197Z,100191.03
2023-01-01T00:15:43.871Z,100194.69
2023-01-01T00:18:12.318Z,100201.19
2023-01-01T00:20:40.896Z,100196.22
2023-01-01T00:23:10.946Z,100192.22
2023-01-01T00:25:41.659Z,100193.88
2023-01-01T00:28:10.872Z,100197.69
2023-01-01T00:30:42.478Z,100197.53
2023-01-01T00:33:11.104Z,100197.38
2023-01-01T00:35:39.688Z,100189.56
2023-01-01T00:38:09.005Z,100197.91
2023-01-01T00:40:39.030Z,100198.91
2023-01-01T00:43:07.571Z,100202.19
2023-01-01T00:45:36.089Z,100206.03
2023-01-01T00:48:04.595Z,100205.34
2023-01-01T00:50:33.164Z,100202.38
2023-01-01T00:53:01.774Z,100213.22
2023-01-01T00:55:30.781Z,100216.88
2023-01-01T00:58:00.617Z,100211.22
2023-01-01T01:00:29.257Z,100215.56
2023-01-01T01:02:57.863Z,100210.34
2023-01-01T01:05:26.401Z,100214.16
2023-01-01T01:07:55.970Z,100218.47
2023-01-01T01:10:26.631Z,100215.16
2023-01-01T01:12:55.200Z,100213.66
2023-01-01T01:15:28.253Z,100215.47
2023-01-01T01:17:56.839Z,100210.16
2023-01-01T01:20:25.431Z,100219.81
2023-01-01T01:22:54.021Z,100220.97
2023-01-01T01:25:23.138Z,100221.81
2023-01-01T01:27:51.628Z,100229.16
2023-01-01T01:30:20.127Z,100228.16
2023-01-01T01:32:50.030Z,100236.13
2023-01-01T01:35:18.607Z,100237.13
2023-01-01T01:41:29.308Z,100239.56
2023-01-01T01:44:00.299Z,100230.72
2023-01-01T01:46:34.409Z,100235.19
2023-01-01T01:49:16.110Z,100223.59
2023-01-01T01:51:46.238Z,100239.22
2023-01-01T01:54:19.396Z,100233.84
2023-01-01T01:56:53.418Z,100243.81
2023-01-01T01:59:25.505Z,100238.78
2023-01-01T02:01:54.872Z,100252.78
2023-01-01T02:04:25.343Z,100250.72
2023-01-01T02:06:55.392Z,100255.50
2023-01-01T02:09:24.582Z,100256.28
2023-01-01T02:11:53.072Z,100240.28
2023-01-01T02:14:21.511Z,100256.69
2023-01-01T02:16:55.222Z,100250.91
2023-01-01T02:19:36.333Z,100261.88
2023-01-01T02:22:15.040Z,100257.00
2023-01-01T02:25:07.087Z,100248.81
2023-01-01T02:27:50.101Z,100240.88
2023-01-01T02:30:21.545Z,100253.44
2023-01-01T02:32:53.298Z,100254.91
2023-01-01T02:35:37.214Z,100259.06
2023-01-01T02:38:10.197Z,100256.03
2023-01-01T02:40:44.267Z,100257.44
2023-01-01T02:43:12.693Z,100266.38
2023-01-01T02:45:43.321Z,100264.50
2023-01-01T02:48:37.190Z,100251.41
2023-01-01T02:51:11.101Z,100248.38
2023-01-01T02:53:48.533Z,100258.63
2023-01-01T02:56:26.694Z,100249.84
2023-01-01T02:59:24.273Z,100257.84
2023-01-01T03:02:02.056Z,100255.25
2023-01-01T03:04:37.811Z,100257.94
2023-01-01T03:07:15.317Z,100252.59
2023-01-01T03:09:52.533Z,100246.47
2023-01-01T03:12:40.038Z,100256.97
2023-01-01T03:15:16.173Z,100256.97
2023-01-01T03:17:52.910Z,100256.34
2023-01-01T03:20:26.062Z,100251.00
2023-01-01T03:22:57.501Z,100252.38
2023-01-01T03:25:30.460Z,100256.03
2023-01-01T03:28:05.189Z,100260.53
2023-01-01T03:30:37.361Z,100263.03
2023-01-01T03:33:15.502Z,100266.16
2023-01-01T03:35:50.775Z,100266.00
2023-01-01T03:38:22.793Z,100277.03
2023-01-01T03:40:56.655Z,100278.06
2023-01-01T03:43:36.807Z,100291.03
2023-01-01T03:46:06.475Z,100287.06
2023-01-01T03:49:02.774Z,100286.13
2023-01-01T03:51:47.344Z,100296.81
2023-01-01T03:54:25.225Z,100296.50
2023-01-01T03:57:00.306Z,100299.53
2023-01-01T03:59:37.377Z,100300.03
2023-01-01T04:02:10.349Z,100302.72
2023-01-01T04:04:40.770Z,100295.56
2023-01-01T04:07:15.224Z,100307.25
2023-01-01T04:09:49.459Z,100312.09
2023-01-01T04:12:19.618Z,100306.75
2023-01-01T04:14:48.047Z,100306.09
2023-01-01T04:17:16.535Z,100318.13
2023-01-01T04:19:51.495Z,100318.31
2023-01-01T04:22:23.841Z,100314.50
2023-01-01T04:24:52.448Z,100311.66
2023-01-01T04:27:20.971Z,100321.34
2023-01-01T04:29:49.396Z,100314.34
2023-01-01T04:32:17.836Z,100328.50
2023-01-01T04:34:47.735Z,100316.00
2023-01-01T04:37:16.438Z,100320.63
2023-01-01T04:39:44.954Z,100331.63
2023-01-01T04:42:13.421Z,100325.94
2023-01-01T04:44:41.956Z,100328.03
2023-01-01T04:47:10.913Z,100318.44
2023-01-01T04:49:39.545Z,100322.34
2023-01-01T04:52:09.408Z,100339.97
2023-01-01T04:54:37.814Z,100340.81
2023-01-01T04:57:06.377Z,100346.63
2023-01-01T04:59:35.092Z,100360.09
2023-01-01T05:02:03.879Z,100362.13
2023-01-01T05:04:32.449Z,100347.63
2023-01-01T05:07:01.117Z,100353.31
2023-01-01T05:09:31.622Z,100359.88
2023-01-01T05:12:00.483Z,100353.88
2023-01-01T05:14:28.911Z,100353.97
2023-01-01T05:16:57.345Z,100345.16
2023-01-01T05:19:25.859Z,100348.84
2023-01-01T05:21:54.575Z,100348.84
2023-01-01T05:24:23.002Z,100348.84
2023-01-01T05:26:53.389Z,100352.50
2023-01-01T05:29:24.462Z,100351.38
2023-01-01T05:31:53.447Z,100346.22
2023-01-01T05:34:21.929Z,100348.22
2023-01-01T05:36:50.319Z,100354.38
2023-01-01T05:39:18.736Z,100365.75
2023-01-01T05:41:47.229Z,100360.13
2023-01-01T05:44:19.619Z,100362.69
2023-01-01T05:46:48.097Z,100366.00
2023-01-01T05:49:16.499Z,100373.34
2023-01-01T05:51:44.928Z,100375.06
2023-01-01T05:56:40.530Z,100367.56
2023-01-01T05:59:08.987Z,100363.09
2023-01-01T06:01:50.481Z,100371.06
2023-01-01T06:04:19.154Z,100379.91
2023-01-01T06:06:47.553Z,100379.22
2023-01-01T06:09:16.010Z,100376.75
2023-01-01T06:11:44.424Z,100379.22
2023-01-01T06:14:13.008Z,100376.75
2023-01-01T06:16:43.674Z,100372.06
2023-01-01T06:19:12.287Z,100374.56
2023-01-01T06:21:40.718Z,100367.25
2023-01-01T06:24:09.869Z,100372.53
2023-01-01T06:26:38.285Z,100382.06
2023-01-01T06:29:06.766Z,100369.72
2023-01-01T06:31:40.354Z,100369.06
2023-01-01T06:34:10.836Z,100369.88
2023-01-01T06:36:39.355Z,100372.75
2023-01-01T06:39:07.935Z,100365.75
2023-01-01T06:41:36.505Z,100367.91
2023-01-01T06:44:05.865Z,100370.91
2023-01-01T06:46:35.959Z,100368.78
2023-01-01T06:49:06.088Z,100366.94
2023-01-01T06:51:39.348Z,100366.47
2023-01-01T06:54:09.144Z,100366.13
2023-01-01T06:56:38.387Z,100367.13
2023-01-01T06:59:06.932Z,100371.50
2023-01-01T07:01:38.071Z,100379.03
2023-01-01T07:04:08.557Z,100385.50
2023-01-01T07:06:38.949Z,100370.56
2023-01-01T07:09:08.469Z,100394.53
2023-01-01T07:11:37.664Z,100392.88
2023-01-01T07:14:06.150Z,100404.22
2023-01-01T07:16:34.717Z,100397.22
2023-01-01T07:19:03.365Z,100383.44
2023-01-01T07:21:34.030Z,100408.56
2023-01-01T07:24:06.034Z,100419.06
2023-01-01T07:26:35.457Z,100418.06
2023-01-01T07:29:07.863Z,100420.22
2023-01-01T07:31:37.825Z,100425.53
2023-01-01T07:34:06.372Z,100412.53
2023-01-01T07:36:35.566Z,100427.19
2023-01-01T07:39:05.682Z,100420.72
2023-01-01T07:41:34.231Z,100427.19
2023-01-01T07:44:02.731Z,100425.53
2023-01-01T07:46:31.668Z,100432.19
2023-01-01T07:49:00.310Z,100432.19
2023-01-01T07:51:29.153Z,100428.19
2023-01-01T07:54:03.986Z,100421.06
2023-01-01T07:56:37.242Z,100440.19
2023-01-01T07:59:06.332Z,100442.84
2023-01-01T08:01:38.142Z,100428.53
2023-01-01T08:04:07.406Z,100446.69
2023-01-01T08:06:36.154Z,100440.34
2023-01-01T08:09:05.074Z,100448.81
2023-01-01T08:11:40.760Z,100432.16
2023-01-01T08:14:10.642Z,100437.16
2023-01-01T08:16:39.138Z,100446.47
2023-01-01T08:19:07.572Z,100431.47
2023-01-01T08:21:36.278Z,100439.31
2023-01-01T08:24:05.040Z,100438.78
2023-01-01T08:26:35.542Z,100440.97
2023-01-01T08:29:06.072Z,100442.47
2023-01-01T08:31:36.161Z,100453.16
2023-01-01T08:34:04.701Z,100450.16
2023-01-01T08:36:33.189Z,100439.81
2023-01-01T08:39:01.961Z,100450.13
2023-01-01T08:41:30.551Z,100461.44
2023-01-01T08:43:59.244Z,100451.94
2023-01-01T08:46:27.879Z,100446.44
2023-01-01T08:48:57.956Z,100450.44
2023-01-01T08:51:26.654Z,100452.72
2023-01-01T08:53:55.141Z,100454.03
2023-01-01T08:56:23.569Z,100459.84
2023-01-01T08:58:52.061Z,100462.34
2023-01-01T09:01:23.539Z,100462.00
2023-01-01T09:03:52.044Z,100469.00
2023-01-01T09:06:22.164Z,100472.00
2023-01-01T09:08:50.632Z,100482.31
2023-01-01T09:11:24.411Z,100476.63
2023-01-01T09:13:54.006Z,100483.28
2023-01-01T09:16:23.365Z,100477.25
2023-01-01T09:18:52.130Z,100492.56
2023-01-01T09:21:22.208Z,100482.72
2023-01-01T09:23:50.711Z,100483.50
2023-01-01T09:26:19.402Z,100483.81
2023-01-01T09:28:48.061Z,100482.09
2023-01-01T09:31:19.891Z,100475.03
2023-01-01T09:33:49.370Z,100485.59
2023-01-01T09:36:31.035Z,100471.72
2023-01-01T09:39:01.132Z,100480.72
2023-01-01T09:41:43.626Z,100487.06
2023-01-01T09:44:26.695Z,100495.44
2023-01-01T09:46:59.819Z,100485.72
2023-01-01T09:49:39.739Z,100486.75
2023-01-01T09:52:15.049Z,100483.25
2023-01-01T09:54:51.808Z,100471.72
2023-01-01T09:57:20.581Z,100479.06
2023-01-01T09:59:51.121Z,100472.03
2023-01-01T10:02:39.080Z,100473.72
2023-01-01T10:05:21.591Z,100459.19
2023-01-01T10:07:58.873Z,100460.19
2023-01-01T10:10:37.503Z,100455.16
2023-01-01T10:13:18.365Z,100453.94
2023-01-01T10:15:55.975Z,100458.28
2023-01-01T10:18:28.130Z,100457.81
2023-01-01T10:21:04.542Z,100456.81
2023-01-01T10:23:40.838Z,100464.47
2023-01-01T10:26:14.465Z,100467.97
2023-01-01T10:28:51.183Z,100479.59
2023-01-01T10:31:21.642Z,100478.88
2023-01-01T10:33:50.154Z,100477.72
2023-01-01T10:36:21.326Z,100482.56
2023-01-01T10:38:52.413Z,100486.91
2023-01-01T10:41:20.897Z,100488.63
2023-01-01T10:43:50.406Z,100484.47
2023-01-01T10:46:29.529Z,100479.00
2023-01-01T10:49:10.486Z,100490.53
2023-01-01T10:51:44.123Z,100494.03
2023-01-01T10:54:40.143Z,100490.84
2023-01-01T10:57:17.293Z,100493.97
2023-01-01T10:59:52.026Z,100480.59
2023-01-01T11:02:25.320Z,100485.53
2023-01-01T11:05:19.209Z,100483.00
2023-01-01T11:07:50.193Z,100465.22
2023-01-01T11:10:23.815Z,100475.84
2023-01-01T11:13:09.403Z,100469.94
2023-01-01T11:15:40.033Z,100462.69
2023-01-01T11:18:14.678Z,100467.84
2023-01-01T11:20:44.184Z,100454.66
2023-01-01T11:23:30.702Z,100459.81
2023-01-01T11:26:03.601Z,100441.78
2023-01-01T11:28:34.604Z,100456.44
2023-01-01T11:31:20.280Z,100452.38
2023-01-01T11:33:52.877Z,100455.44
2023-01-01T11:36:27.218Z,100446.56
2023-01-01T11:39:09.606Z,100446.75
2023-01-01T11:41:48.407Z,100442.59
2023-01-01T11:44:29.799Z,100450.44
2023-01-01T11:46:59.092Z,100457.91
2023-01-01T11:49:33.530Z,100451.19
2023-01-01T11:52:31.167Z,100451.66
2023-01-01T11:55:10.345Z,100462.16
2023-01-01T11:57:42.632Z,100457.28
2023-01-01T12:00:17.153Z,100455.25
2023-01-01T12:02:56.623Z,100447.88
2023-01-01T12:05:29.612Z,100447.97
2023-01-01T12:08:04.803Z,100461.13
2023-01-01T12:10:41.544Z,100451.50
2023-01-01T12:13:18.982Z,100453.63
2023-01-01T12:15:53.364Z,100459.91
2023-01-01T12:18:27.963Z,100455.00
2023-01-01T12:21:00.663Z,100447.06
2023-01-01T12:23:29.446Z,100446.44
2023-01-01T12:26:13.084Z,100442.53
2023-01-01T12:28:54.064Z,100441.06
2023-01-01T12:31:34.772Z,100420.78
2023-01-01T12:34:18.031Z,100423.25
2023-01-01T12:36:55.067Z,100422.88
2023-01-01T12:40:18.426Z,100443.09
2023-01-01T12:43:02.079Z,100437.84
2023-01-01T12:45:54.516Z,100442.63
2023-01-01T12:48:40.845Z,100441.16
2023-01-01T12:51:21.486Z,100435.44
2023-01-01T12:53:58.960Z,100440.16
2023-01-01T12:56:34.107Z,100446.31
2023-01-01T12:59:07.394Z,100438.13
2023-01-01T13:01:42.052Z,100452.16
2023-01-01T13:04:16.052Z,100445.31
2023-01-01T13:06:49.147Z,100454.47
2023-01-01T13:09:21.416Z,100453.44
2023-01-01T13:11:55.015Z,100453.88
2023-01-01T13:14:23.703Z,100469.41
2023-01-01T13:16:56.185Z,100463.69
2023-01-01T13:19:33.397Z,100462.28
2023-01-01T13:22:23.227Z,100479.66
2023-01-01T13:25:05.950Z,100471.88
2023-01-01T13:28:15.563Z,100471.50
2023-01-01T13:30:53.802Z,100478.53
2023-01-01T13:33:27.616Z,100476.47
2023-01-01T13:36:33.130Z,100473.16
2023-01-01T13:39:02.652Z,100465.34
2023-01-01T13:41:33.155Z,100457.56
2023-01-01T13:44:21.953Z,100482.97
2023-01-01T13:47:10.914Z,100495.25
2023-01-01T13:50:02.789Z,100495.97
2023-01-01T13:52:52.699Z,100502.19
2023-01-01T13:55:48.670Z,100502.56
2023-01-01T13:58:46.028Z,100504.38
2023-01-01T14:01:43.063Z,100515.13
2023-01-01T14:04:36.031Z,100518.44
2023-01-01T14:07:49.192Z,100516.78
2023-01-01T14:10:24.438Z,100522.69
2023-01-01T14:12:54.876Z,100528.31
2023-01-01T14:15:31.162Z,100527.13
2023-01-01T14:18:01.780Z,100519.81
2023-01-01T14:20:36.400Z,100521.56
2023-01-01T14:23:10.915Z,100522.31
2023-01-01T14:25:43.432Z,100526.66
2023-01-01T14:28:20.699Z,100525.63
2023-01-01T14:30:49.787Z,100530.97
2023-01-01T14:33:26.392Z,100521.66
2023-01-01T14:35:56.079Z,100522.06
2023-01-01T14:38:28.946Z,100526.00
2023-01-01T14:41:14.915Z,100537.94
2023-01-01T14:43:46.001Z,100536.72
2023-01-01T14:46:18.112Z,100531.22
2023-01-01T14:48:48.992Z,100534.06
2023-01-01T14:51:21.319Z,100536.84
2023-01-01T14:53:53.801Z,100520.19
2023-01-01T14:56:28.805Z,100541.53
2023-01-01T14:59:05.212Z,100529.38
2023-01-01T15:01:34.276Z,100534.56
2023-01-01T15:04:04.287Z,100543.28
2023-01-01T15:06:34.113Z,100541.47
2023-01-01T15:09:04.738Z,100549.03
2023-01-01T15:11:33.209Z,100545.91
2023-01-01T15:14:04.778Z,100541.59
2023-01-01T15:16:40.344Z,100556.78
2023-01-01T15:19:20.483Z,100563.63
2023-01-01T15:21:49.052Z,100559.81
2023-01-01T15:24:24.152Z,100561.84
2023-01-01T15:26:55.225Z,100569.66
2023-01-01T15:29:29.707Z,100564.66
2023-01-01T15:32:03.763Z,100568.84
2023-01-01T15:34:33.838Z,100577.03
2023-01-01T15:37:15.992Z,100582.53
2023-01-01T15:39:53.045Z,100572.88
2023-01-01T15:42:32.657Z,100575.53
2023-01-01T15:45:16.269Z,100580.22
2023-01-01T15:47:45.588Z,100586.81
2023-01-01T15:50:23.349Z,100583.81
2023-01-01T15:52:58.304Z,100590.66
2023-01-01T15:55:31.914Z,100590.81
2023-01-01T15:58:01.110Z,100593.81
2023-01-01T16:00:31.795Z,100590.34
2023-01-01T16:03:03.660Z,100597.16
2023-01-01T16:05:32.933Z,100599.69
2023-01-01T16:08:05.506Z,100594.16
2023-01-01T16:10:37.155Z,100612.00
2023-01-01T16:13:05.582Z,100604.50
2023-01-01T16:15:34.372Z,100611.66
2023-01-01T16:18:03.268Z,100619.16
2023-01-01T16:20:32.265Z,100624.66
2023-01-01T16:23:00.959Z,100620.81
2023-01-01T16:25:29.638Z,100624.00
2023-01-01T16:28:00.024Z,100629.47
2023-01-01T16:30:28.627Z,100635.47
2023-01-01T16:32:59.461Z,100640.47
2023-01-01T16:35:28.034Z,100639.81
2023-01-01T16:37:56.628Z,100641.47
2023-01-01T16:40:25.088Z,100622.47
2023-01-01T16:42:56.411Z,100636.97
2023-01-01T16:45:27.030Z,100637.28
2023-01-01T16:47:56.431Z,100633.97
2023-01-01T16:50:25.444Z,100633.75
2023-01-01T16:52:53.859Z,100632.94
2023-01-01T16:55:23.127Z,100628.75
2023-01-01T16:58:02.661Z,100638.94
2023-01-01T17:00:41.600Z,100645.72
2023-01-01T17:03:10.962Z,100650.22
2023-01-01T17:05:44.035Z,100652.38
2023-01-01T17:08:13.624Z,100650.88
2023-01-01T17:10:42.724Z,100661.00
2023-01-01T17:13:11.103Z,100657.13
2023-01-01T17:15:41.717Z,100661.66
2023-01-01T17:18:11.556Z,100661.31
2023-01-01T17:20:40.147Z,100657.28
2023-01-01T17:23:08.595Z,100658.75
2023-01-01T17:25:37.280Z,100654.59
2023-01-01T17:28:06.201Z,100649.56
2023-01-01T17:30:34.878Z,100653.56
2023-01-01T17:33:05.008Z,100655.84
2023-01-01T17:35:33.746Z,100667.31
2023-01-01T17:38:02.425Z,100672.94
2023-01-01T17:40:35.117Z,100665.44
2023-01-01T17:43:05.482Z,100668.41
2023-01-01T17:45:34.200Z,100666.06
2023-01-01T17:48:02.643Z,100661.75
2023-01-01T17:50:32.574Z,100667.06
2023-01-01T17:53:01.264Z,100661.06
2023-01-01T17:55:30.610Z,100654.06
2023-01-01T17:57:59.149Z,100650.19
2023-01-01T18:00:27.854Z,100650.00
2023-01-01T18:02:56.847Z,100650.16
2023-01-01T18:05:25.453Z,100646.13
2023-01-01T18:07:55.474Z,100654.28
2023-01-01T18:10:24.048Z,100646.09
2023-01-01T18:12:52.637Z,100645.56
2023-01-01T18:15:21.925Z,100656.53
2023-01-01T18:17:50.522Z,100665.50
2023-01-01T18:20:19.355Z,100651.66
2023-01-01T18:22:47.908Z,100659.50
2023-01-01T18:25:18.168Z,100654.69
2023-01-01T18:27:47.160Z,100655.00
2023-01-01T18:30:17.888Z,100663.34
2023-01-01T18:32:46.343Z,100667.53
2023-01-01T18:35:15.555Z,100663.03
2023-01-01T18:37:44.093Z,100662.22
2023-01-01T18:40:14.520Z,100657.72
2023-01-01T18:42:54.776Z,100649.91
2023-01-01T18:45:24.980Z,100652.69
2023-01-01T18:47:53.543Z,100664.19
2023-01-01T18:50:26.144Z,100649.13
2023-01-01T18:52:57.607Z,100664.81
2023-01-01T18:55:28.623Z,100666.63
2023-01-01T18:58:02.569Z,100677.44
2023-01-01T19:00:36.716Z,100667.06
2023-01-01T19:03:13.729Z,100667.69
2023-01-01T19:05:42.297Z,100681.38
2023-01-01T19:08:17.321Z,100678.03
2023-01-01T19:10:48.496Z,100680.56
2023-01-01T19:13:25.171Z,100701.97
2023-01-01T19:15:58.458Z,100692.63
2023-01-01T19:18:31.210Z,100693.91
2023-01-01T19:21:04.052Z,100695.75
2023-01-01T19:23:34.023Z,100690.19
2023-01-01T19:26:05.488Z,100699.03
2023-01-01T19:28:38.620Z,100694.84
2023-01-01T19:31:08.904Z,100692.19
2023-01-01T19:33:37.702Z,100698.34
2023-01-01T19:36:06.868Z,100695.84
2023-01-01T19:38:35.652Z,100695.94
2023-01-01T19:41:04.334Z,100698.88
2023-01-01T19:43:34.701Z,100704.34
2023-01-01T19:46:05.098Z,100704.34
2023-01-01T19:48:33.893Z,100702.97
2023-01-01T19:51:02.878Z,100704.13
2023-01-01T19:53:34.024Z,100701.78
2023-01-01T19:56:02.875Z,100700.94
2023-01-01T19:58:31.523Z,100707.81
2023-01-01T20:01:00.088Z,100704.88
2023-01-01T20:04:03.167Z,100703.66
2023-01-01T20:06:21.721Z,100697.50
2023-01-01T20:08:50.452Z,100683.38
2023-01-01T20:11:19.011Z,100698.22
2023-01-01T20:13:47.500Z,100703.97
2023-01-01T20:16:16.283Z,100698.25
2023-01-01T20:18:49.482Z,100699.41
2023-01-01T20:21:37.877Z,100695.81
2023-01-01T20:24:07.373Z,100694.16
2023-01-01T20:26:37.436Z,100699.09
2023-01-01T20:29:20.666Z,100710.41
2023-01-01T20:31:51.098Z,100703.16
2023-01-01T20:34:21.946Z,100714.66
2023-01-01T20:37:08.758Z,100705.25
2023-01-01T20:39:37.856Z,100718.56
2023-01-01T20:42:07.794Z,100720.81
2023-01-01T20:44:37.216Z,100718.63
2023-01-01T20:47:05.981Z,100713.69
2023-01-01T20:49:37.003Z,100709.22
2023-01-01T20:52:06.443Z,100708.44
2023-01-01T20:54:37.062Z,100702.13
2023-01-01T20:57:05.959Z,100718.03
2023-01-01T20:59:36.916Z,100706.72
2023-01-01T21:02:06.800Z,100716.50
2023-01-01T21:04:39.408Z,100716.19
2023-01-01T21:07:10.979Z,100712.84
2023-01-01T21:09:41.616Z,100714.31
2023-01-01T21:12:11.293Z,100726.03
2023-01-01T21:14:40.020Z,100724.22
2023-01-01T21:17:21.717Z,100718.06
2023-01-01T21:19:53.533Z,100715.72
2023-01-01T21:22:25.219Z,100716.00
2023-01-01T21:24:58.872Z,100710.00
2023-01-01T21:27:39.758Z,100721.91
2023-01-01T21:30:13.494Z,100715.91
2023-01-01T21:32:43.811Z,100700.28
2023-01-01T21:35:24.276Z,100698.88
2023-01-01T21:37:55.573Z,100704.22
2023-01-01T21:40:50.236Z,100704.50
2023-01-01T21:43:33.775Z,100698.63
2023-01-01T21:46:18.324Z,100690.28
2023-01-01T21:48:56.222Z,100697.25
2023-01-01T21:51:34.938Z,100701.75
2023-01-01T21:54:18.313Z,100708.44
2023-01-01T21:56:54.091Z,100709.72
2023-01-01T21:59:37.431Z,100710.41
2023-01-01T22:02:38.535Z,100715.16
2023-01-01T22:05:30.775Z,100710.13
2023-01-01T22:08:13.824Z,100695.63
2023-01-01T22:10:42.261Z,100714.31
2023-01-01T22:13:16.141Z,100720.47
2023-01-01T22:15:46.185Z,100718.78
2023-01-01T22:18:24.555Z,100718.25
2023-01-01T22:20:53.597Z,100726.91
2023-01-01T22:23:43.625Z,100725.25
2023-01-01T22:26:18.376Z,100719.94
2023-01-01T22:28:48.577Z,100728.59
2023-01-01T22:31:23.125Z,100708.22
2023-01-01T22:33:55.564Z,100716.88
2023-01-01T22:36:26.609Z,100717.13
2023-01-01T22:39:03.803Z,100715.16
2023-01-01T22:41:32.450Z,100711.13
2023-01-01T22:44:04.122Z,100698.97
2023-01-01T22:46:37.339Z,100698.53
2023-01-01T22:49:16.362Z,100695.19
2023-01-01T22:51:46.836Z,100675.78
2023-01-01T22:54:16.788Z,100682.06
2023-01-01T22:56:45.294Z,100666.28
2023-01-01T22:59:13.968Z,100668.25
2023-01-01T23:01:42.761Z,100665.97
2023-01-01T23:04:11.393Z,100675.63
2023-01-01T23:06:40.364Z,100671.97
2023-01-01T23:09:11.502Z,100674.94
2023-01-01T23:11:41.743Z,100678.81
2023-01-01T23:14:28.145Z,100675.47
2023-01-01T23:16:56.588Z,100672.97
2023-01-01T23:19:25.000Z,100679.13
2023-01-01T23:21:54.079Z,100667.66
2023-01-01T23:24:25.729Z,100667.53
2023-01-01T23:26:56.112Z,100665.97
2023-01-01T23:29:25.572Z,100661.34
2023-01-01T23:31:54.222Z,100654.94
2023-01-01T23:34:22.870Z,100653.94
2023-01-01T23:36:54.507Z,100645.44
2023-01-01T23:39:23.004Z,100635.34
2023-01-01T23:41:51.854Z,100636.34
2023-01-01T23:44:22.030Z,100632.31
2023-01-01T23:46:50.968Z,100617.97
2023-01-01T23:49:20.277Z,100629.66
2023-01-01T23:51:48.924Z,100632.44
2023-01-01T23:54:17.359Z,100616.00
2023-01-01T23:56:45.811Z,100633.59
2023-01-01T23:59:14.378Z,100624.25
